Time;durP1;ratioP1;P1;durP2;ratioP2;P2;SDS_P1;SDS_P2;PMS_P1;PMS_P2;Temp;Humidity;BMP_temperature;BMP_pressure;BME280_temperature;BME280_humidity;BME280_pressure;Samples;Min_cycle;Max_cycle;Signal;HPM_P1;HPM_P2
2023/01/13 00:01:23;;;;;;;15.90;3.13;;;10.40;99.90;;;;;;5055017;27;87534;-75
2023/01/13 00:03:51;;;;;;;14.35;2.75;;;10.40;99.90;;;;;;5054990;27;87690;-75
2023/01/13 00:06:20;;;;;;;13.32;2.95;;;10.30;99.90;;;;;;5055011;27;87507;-75
2023/01/13 00:08:48;;;;;;;15.20;2.90;;;10.40;99.90;;;;;;5053516;27;88046;-75
2023/01/13 00:11:16;;;;;;;16.35;3.63;;;10.30;99.90;;;;;;5053556;27;87425;-75
2023/01/13 00:13:44;;;;;;;17.85;4.10;;;10.20;99.90;;;;;;5054583;27;87594;-75
2023/01/13 00:16:16;;;;;;;18.52;3.45;;;10.20;99.90;;;;;;5053280;27;91474;-75
2023/01/13 00:18:44;;;;;;;9.43;3.00;;;10.20;99.90;;;;;;5053112;27;89112;-75
2023/01/13 00:21:15;;;;;;;16.00;4.05;;;10.10;99.90;;;;;;5036875;27;87579;-75
2023/01/13 00:23:43;;;;;;;14.23;2.90;;;10.10;99.90;;;;;;5053034;27;88901;-75
2023/01/13 00:26:19;;;;;;;19.83;3.78;;;10.10;99.90;;;;;;5054581;27;88414;-75
2023/01/13 00:28:46;;;;;;;17.85;3.60;;;10.10;99.90;;;;;;5054178;27;88453;-75
2023/01/13 00:31:18;;;;;;;17.52;3.78;;;10.00;99.90;;;;;;5054673;27;87515;-75
2023/01/13 00:33:47;;;;;;;20.75;4.30;;;10.00;99.90;;;;;;5053014;27;89575;-75
2023/01/13 00:36:16;;;;;;;26.58;3.97;;;9.90;99.90;;;;;;5054522;27;88390;-75
2023/01/13 00:38:43;;;;;;;20.73;3.58;;;9.90;99.90;;;;;;5049182;27;98075;-75
2023/01/13 00:41:15;;;;;;;26.45;4.15;;;9.90;99.90;;;;;;5040988;28;87558;-75
2023/01/13 00:43:43;;;;;;;19.67;3.63;;;9.80;99.90;;;;;;5040632;27;87568;-75
2023/01/13 00:46:12;;;;;;;21.85;4.70;;;9.80;99.90;;;;;;5039498;27;90874;-75
2023/01/13 00:48:39;;;;;;;26.42;3.92;;;9.70;99.90;;;;;;5038974;28;89344;-75
2023/01/13 00:51:11;;;;;;;30.92;4.90;;;9.70;99.90;;;;;;5039448;28;88962;-75
2023/01/13 00:53:44;;;;;;;22.15;4.03;;;9.70;99.90;;;;;;5040800;27;87440;-75
2023/01/13 00:56:23;;;;;;;21.58;4.47;;;9.70;99.90;;;;;;5039343;28;90994;-75
2023/01/13 00:59:09;;;;;;;22.85;3.88;;;9.70;99.90;;;;;;5040821;28;88089;-75
2023/01/13 01:01:37;;;;;;;25.88;7.03;;;9.60;99.90;;;;;;5040284;27;87364;-75
2023/01/13 01:04:04;;;;;;;21.80;4.63;;;9.50;99.90;;;;;;5040728;28;87599;-74
2023/01/13 01:06:31;;;;;;;23.52;5.00;;;9.50;99.90;;;;;;5040254;27;88673;-74
2023/01/13 01:08:58;;;;;;;27.48;4.53;;;9.50;99.90;;;;;;5039066;28;90811;-74
2023/01/13 01:11:28;;;;;;;27.95;5.32;;;9.40;99.90;;;;;;5022564;28;88127;-75
2023/01/13 01:13:57;;;;;;;32.70;5.85;;;9.40;99.90;;;;;;5039048;28;87578;-74
2023/01/13 01:16:26;;;;;;;18.50;4.30;;;9.40;99.90;;;;;;5038843;28;91252;-74
2023/01/13 01:18:54;;;;;;;23.48;5.00;;;9.40;99.90;;;;;;5038832;28;90372;-74
2023/01/13 01:21:23;;;;;;;26.63;4.53;;;9.40;99.90;;;;;;5038825;27;89876;-74
2023/01/13 01:23:51;;;;;;;29.15;5.95;;;9.40;99.90;;;;;;5038813;28;87566;-75
2023/01/13 01:26:23;;;;;;;29.30;5.50;;;9.30;99.90;;;;;;5040110;27;88621;-74
2023/01/13 01:28:51;;;;;;;32.50;5.50;;;9.30;99.90;;;;;;5039786;28;88462;-74
2023/01/13 01:31:21;;;;;;;24.67;5.10;;;9.30;99.90;;;;;;5040127;28;87520;-74
2023/01/13 01:33:49;;;;;;;25.90;4.38;;;9.30;99.90;;;;;;5038823;28;87478;-74
2023/01/13 01:36:18;;;;;;;29.17;6.13;;;9.30;99.90;;;;;;5038554;28;88089;-74
2023/01/13 01:38:46;;;;;;;21.15;3.97;;;9.30;99.90;;;;;;5038266;27;87862;-74
2023/01/13 01:41:19;;;;;;;17.55;4.30;;;9.30;99.90;;;;;;5038636;28;87557;-74
2023/01/13 01:43:58;;;;;;;24.25;4.85;;;9.30;99.90;;;;;;5039914;28;87472;-74
2023/01/13 01:46:27;;;;;;;21.42;4.35;;;9.20;99.90;;;;;;5040101;28;88673;-75
2023/01/13 01:49:00;;;;;;;22.00;3.42;;;9.20;99.90;;;;;;5039417;28;88084;-74
2023/01/13 01:51:32;;;;;;;23.50;4.05;;;9.30;99.90;;;;;;5020747;28;89971;-74
2023/01/13 01:54:01;;;;;;;16.27;3.53;;;9.20;99.90;;;;;;5038420;28;89395;-75
2023/01/13 01:56:29;;;;;;;27.42;5.53;;;9.20;99.90;;;;;;5039636;28;88427;-74
2023/01/13 01:58:56;;;;;;;23.83;3.85;;;9.20;99.90;;;;;;5039801;28;88127;-74
2023/01/13 02:01:23;;;;;;;20.38;3.42;;;9.20;99.90;;;;;;5038178;28;89856;-74
2023/01/13 02:04:06;;;;;;;23.80;4.13;;;9.20;99.90;;;;;;5039437;27;87397;-74
2023/01/13 02:06:33;;;;;;;20.77;4.45;;;9.20;99.90;;;;;;5039907;27;88400;-75
2023/01/13 02:09:00;;;;;;;23.33;4.72;;;9.20;99.90;;;;;;5037766;28;90512;-74
2023/01/13 02:14:22;;;;;;;21.52;4.00;;;9.20;99.90;;;;;;5039778;27;87478;-74
2023/01/13 02:16:58;;;;;;;25.83;5.43;;;9.10;99.90;;;;;;5038237;28;88281;-75
2023/01/13 02:19:35;;;;;;;23.10;4.18;;;9.10;99.90;;;;;;5038223;28;88081;-74
2023/01/13 02:22:24;;;;;;;21.50;4.00;;;9.10;99.90;;;;;;5039560;27;87557;-75
2023/01/13 02:25:00;;;;;;;26.88;3.88;;;9.10;99.90;;;;;;5037735;28;89491;-75
2023/01/13 02:27:51;;;;;;;20.75;3.83;;;9.10;99.90;;;;;;5037861;28;88343;-75
2023/01/13 02:33:57;;;;;;;18.05;3.72;;;9.10;99.90;;;;;;5037811;28;89309;-74
2023/01/13 02:36:36;;;;;;;21.10;3.75;;;9.00;99.90;;;;;;5038198;28;87522;-74
2023/01/13 02:39:14;;;;;;;22.40;3.80;;;9.00;99.90;;;;;;5038951;28;88213;-74
2023/01/13 02:45:09;;;;;;;27.42;5.07;;;9.10;99.90;;;;;;5039083;27;87482;-74
2023/01/13 02:47:41;;;;;;;17.35;3.97;;;9.00;99.90;;;;;;5037607;28;89470;-74
2023/01/13 02:50:12;;;;;;;17.10;3.88;;;9.00;99.90;;;;;;5037321;28;91091;-74
2023/01/13 02:52:59;;;;;;;22.52;4.47;;;9.00;99.90;;;;;;5039029;28;87562;-74
2023/01/13 02:55:29;;;;;;;29.10;5.03;;;9.00;99.90;;;;;;5039025;28;87333;-74
2023/01/13 02:58:00;;;;;;;18.67;3.92;;;9.00;99.90;;;;;;5037115;28;88381;-74
2023/01/13 03:00:28;;;;;;;25.15;4.15;;;9.10;99.90;;;;;;5037776;28;88354;-74
2023/01/13 03:02:55;;;;;;;29.05;3.83;;;9.00;99.90;;;;;;5038300;27;88473;-74
2023/01/13 03:05:22;;;;;;;29.88;5.15;;;9.00;99.90;;;;;;5020631;28;90053;-74
2023/01/13 03:08:01;;;;;;;26.42;3.83;;;9.00;99.90;;;;;;5038445;28;87552;-74
2023/01/13 03:10:34;;;;;;;27.48;4.88;;;9.00;99.90;;;;;;5037319;28;88362;-74
2023/01/13 03:13:13;;;;;;;21.47;4.03;;;8.90;99.90;;;;;;5036973;28;90480;-74
2023/01/13 03:16:05;;;;;;;25.98;5.00;;;8.90;99.90;;;;;;5038657;28;87605;-74
2023/01/13 03:18:39;;;;;;;22.40;3.72;;;9.00;99.90;;;;;;5038887;28;87481;-74
2023/01/13 03:21:23;;;;;;;21.42;4.03;;;8.90;99.90;;;;;;5038320;27;88427;-74
2023/01/13 03:23:59;;;;;;;21.60;4.25;;;8.90;99.90;;;;;;5020175;28;90507;-75
2023/01/13 03:26:29;;;;;;;23.20;4.68;;;8.90;99.90;;;;;;5037122;27;88059;-74
2023/01/13 03:29:05;;;;;;;27.92;4.32;;;8.80;99.90;;;;;;5037750;27;87589;-74
2023/01/13 03:31:38;;;;;;;25.35;3.35;;;8.80;99.90;;;;;;5037310;27;88307;-74
2023/01/13 03:34:12;;;;;;;22.92;4.30;;;8.80;99.90;;;;;;5037199;28;88052;-74
2023/01/13 03:36:40;;;;;;;26.20;4.45;;;8.80;99.90;;;;;;5036875;27;90057;-74
2023/01/13 03:39:13;;;;;;;25.92;4.45;;;8.80;99.90;;;;;;5020063;28;89431;-74
2023/01/13 03:41:47;;;;;;;20.48;4.40;;;8.80;99.90;;;;;;5019795;28;91227;-74
2023/01/13 03:44:32;;;;;;;23.10;4.43;;;8.80;99.90;;;;;;5037535;28;87898;-74
2023/01/13 03:47:16;;;;;;;30.00;4.55;;;8.80;99.90;;;;;;5036588;28;88746;-74
2023/01/13 03:49:47;;;;;;;;;;;8.70;99.90;;;;;;5038237;27;87970;-74
2023/01/13 03:52:36;;;;;;;25.83;4.70;;;8.70;99.90;;;;;;5053989;27;91024;-74
2023/01/13 03:55:17;;;;;;;21.52;5.28;;;8.70;99.90;;;;;;5035388;28;91188;-74
2023/01/13 03:58:02;;;;;;;28.90;4.88;;;8.60;99.90;;;;;;5036381;28;89400;-74
2023/01/13 04:00:38;;;;;;;25.30;4.15;;;8.70;99.90;;;;;;5035887;27;89045;-74
2023/01/13 04:03:19;;;;;;;25.17;4.75;;;8.70;99.90;;;;;;5037274;28;88147;-74
2023/01/13 04:05:55;;;;;;;27.67;3.63;;;8.70;99.90;;;;;;5036081;28;91181;-74
2023/01/13 04:08:27;;;;;;;21.17;3.97;;;8.70;99.90;;;;;;5036125;28;88674;-74
2023/01/13 04:11:07;;;;;;;21.48;3.92;;;8.70;99.90;;;;;;5037231;28;88001;-74
2023/01/13 04:13:38;;;;;;;27.83;5.45;;;8.70;99.90;;;;;;5036208;27;91309;-74
2023/01/13 04:16:10;;;;;;;25.38;4.32;;;8.70;99.90;;;;;;5040887;27;88904;-75
2023/01/13 04:18:38;;;;;;;19.98;4.80;;;8.80;99.90;;;;;;5039232;28;91116;-75
2023/01/13 04:21:07;;;;;;;23.30;4.80;;;8.90;99.90;;;;;;5040073;28;88646;-75
2023/01/13 04:23:34;;;;;;;23.92;4.95;;;8.90;99.90;;;;;;5039202;28;89303;-75
2023/01/13 04:26:01;;;;;;;23.20;4.45;;;8.90;99.90;;;;;;5040385;28;88818;-75
2023/01/13 04:28:28;;;;;;;19.65;3.97;;;9.00;99.90;;;;;;5039145;27;88563;-74
2023/01/13 04:30:55;;;;;;;21.08;4.20;;;9.00;99.90;;;;;;5073222;27;89477;-74
2023/01/13 04:33:22;;;;;;;28.00;5.20;;;9.00;99.90;;;;;;5040567;28;88380;-74
2023/01/13 04:35:49;;;;;;;20.40;4.45;;;9.00;99.90;;;;;;5038937;27;94205;-74
2023/01/13 04:38:17;;;;;;;21.67;4.43;;;9.00;99.90;;;;;;5040608;28;89054;-74
2023/01/13 04:40:45;;;;;;;23.90;5.20;;;9.00;99.90;;;;;;5040476;28;87915;-74
2023/01/13 04:43:14;;;;;;;28.00;5.18;;;9.00;99.90;;;;;;5072982;27;90952;-75
2023/01/13 04:45:42;;;;;;;18.65;4.55;;;9.00;99.90;;;;;;5038487;27;92096;-74
2023/01/13 04:48:09;;;;;;;17.55;3.35;;;9.00;99.90;;;;;;5040037;28;89460;-74
2023/01/13 04:50:36;;;;;;;25.13;4.53;;;9.00;99.90;;;;;;5039062;27;88129;-74
2023/01/13 04:53:03;;;;;;;29.95;4.60;;;9.00;99.90;;;;;;5038784;28;88076;-74
2023/01/13 04:55:31;;;;;;;27.90;4.70;;;9.00;99.90;;;;;;5022172;28;91524;-74
2023/01/13 04:58:09;;;;;;;29.20;4.53;;;9.00;99.90;;;;;;5040081;27;88656;-75
2023/01/13 05:00:36;;;;;;;27.90;4.28;;;9.00;99.90;;;;;;5039074;28;87935;-74
2023/01/13 05:03:03;;;;;;;21.90;4.72;;;9.00;99.90;;;;;;5040063;27;88043;-74
2023/01/13 05:05:31;;;;;;;26.75;4.88;;;9.00;99.90;;;;;;5039897;28;87972;-74
2023/01/13 05:07:58;;;;;;;29.35;5.03;;;9.00;99.90;;;;;;5040020;28;88757;-74
2023/01/13 05:10:26;;;;;;;27.77;3.75;;;9.10;99.90;;;;;;5039320;28;88761;-74
2023/01/13 05:18:28;;;;;;;23.75;4.88;;;9.10;99.90;;;;;;5038154;28;91049;-74
2023/01/13 05:20:55;;;;;;;29.50;4.95;;;9.10;99.90;;;;;;5039841;27;87901;-74
2023/01/13 05:26:07;;;;;;;21.50;3.67;;;9.10;99.90;;;;;;5039414;27;87968;-74
2023/01/13 05:28:34;;;;;;;26.88;4.25;;;9.10;99.90;;;;;;5038303;27;88705;-74
2023/01/13 05:31:01;;;;;;;22.67;4.05;;;9.10;99.90;;;;;;5038199;28;89821;-74
2023/01/13 05:33:28;;;;;;;21.20;4.03;;;9.20;99.90;;;;;;5038225;28;88298;-74
2023/01/13 05:35:55;;;;;;;25.30;5.07;;;9.20;99.90;;;;;;5037811;27;92027;-75
2023/01/13 05:38:22;;;;;;;20.17;4.00;;;9.20;99.90;;;;;;5021232;28;91920;-75
2023/01/13 05:43:35;;;;;;;29.45;4.50;;;9.30;99.90;;;;;;5038598;28;88065;-75
2023/01/13 05:46:05;;;;;;;19.58;5.00;;;9.30;99.90;;;;;;5039606;27;88783;-74
2023/01/13 05:48:41;;;;;;;23.73;4.78;;;9.30;99.90;;;;;;5072238;27;91325;-74
2023/01/13 05:51:12;;;;;;;25.65;4.72;;;9.30;99.90;;;;;;5038203;28;88248;-74
2023/01/13 05:53:39;;;;;;;18.92;4.03;;;9.20;99.90;;;;;;5021535;28;91215;-74
2023/01/13 05:56:07;;;;;;;23.92;5.20;;;9.20;99.90;;;;;;5039199;28;87972;-74
2023/01/13 05:58:34;;;;;;;21.42;3.45;;;9.10;99.90;;;;;;5039183;28;89045;-74
2023/01/13 06:01:04;;;;;;;17.95;3.30;;;9.10;99.90;;;;;;5037692;28;89220;-74
2023/01/13 06:03:32;;;;;;;16.25;3.75;;;9.10;99.90;;;;;;5039061;27;89043;-73
2023/01/13 06:06:00;;;;;;;22.20;3.45;;;9.10;99.90;;;;;;5039103;27;88857;-74
2023/01/13 06:08:28;;;;;;;15.95;3.38;;;9.10;99.90;;;;;;5037454;27;88571;-74
2023/01/13 06:10:56;;;;;;;18.00;3.33;;;9.10;99.90;;;;;;5038984;28;88074;-74
2023/01/13 06:13:24;;;;;;;21.08;3.47;;;9.10;99.90;;;;;;5038693;28;88059;-74
2023/01/13 06:15:54;;;;;;;18.73;3.35;;;9.10;99.90;;;;;;5037763;28;89011;-74
2023/01/13 06:18:21;;;;;;;19.60;3.65;;;9.20;99.90;;;;;;5037948;28;88759;-74
2023/01/13 06:20:48;;;;;;;21.88;3.30;;;9.20;99.90;;;;;;5071503;27;89832;-74
2023/01/13 06:23:15;;;;;;;18.65;3.70;;;9.20;99.90;;;;;;5038580;28;88293;-74
2023/01/13 06:26:08;;;;;;;15.15;3.13;;;9.30;99.90;;;;;;5038537;27;89461;-74
2023/01/13 06:28:35;;;;;;;15.55;3.03;;;9.40;99.90;;;;;;5037836;27;89396;-73
2023/01/13 06:31:06;;;;;;;19.08;3.53;;;9.30;99.90;;;;;;5037115;28;89393;-74
2023/01/13 06:33:37;;;;;;;14.57;3.53;;;9.40;99.90;;;;;;5037513;27;88358;-74
2023/01/13 06:36:12;;;;;;;16.88;2.92;;;9.50;99.90;;;;;;5038894;28;88839;-74
2023/01/13 06:38:45;;;;;;;15.48;3.97;;;9.50;99.90;;;;;;5038307;28;89573;-74
2023/01/13 06:41:12;;;;;;;14.93;3.37;;;9.50;99.90;;;;;;5037464;28;88176;-74
2023/01/13 06:43:40;;;;;;;16.63;4.78;;;9.60;99.90;;;;;;5020978;28;88259;-73
2023/01/13 06:46:07;;;;;;;14.95;2.90;;;9.60;99.90;;;;;;5020555;28;87956;-74
2023/01/13 06:48:34;;;;;;;13.30;3.35;;;9.60;99.90;;;;;;5036820;28;91300;-74
2023/01/13 06:51:03;;;;;;;18.27;4.40;;;9.60;99.90;;;;;;5020190;28;88732;-74
2023/01/13 06:53:30;;;;;;;14.63;3.65;;;9.70;99.90;;;;;;5036904;27;88199;-74
2023/01/13 06:55:57;;;;;;;14.73;4.22;;;9.70;99.90;;;;;;5036952;27;91351;-74
2023/01/13 06:58:24;;;;;;;20.65;4.32;;;9.70;99.90;;;;;;5020266;28;89519;-74
2023/01/13 07:00:51;;;;;;;14.90;3.63;;;9.70;99.90;;;;;;5038410;28;88031;-74
2023/01/13 07:03:18;;;;;;;12.77;3.15;;;9.80;99.90;;;;;;5019951;28;91184;-74
2023/01/13 07:05:54;;;;;;;13.73;3.00;;;9.80;99.90;;;;;;5037074;28;88717;-75
2023/01/13 07:08:22;;;;;;;11.43;3.33;;;9.80;99.90;;;;;;5038167;27;88470;-74
2023/01/13 07:10:50;;;;;;;13.40;3.65;;;9.80;99.90;;;;;;5038172;28;88000;-75
2023/01/13 07:16:04;;;;;;;10.02;2.75;;;9.80;99.90;;;;;;5037784;27;88727;-74
2023/01/13 07:18:33;;;;;;;14.20;2.72;;;9.80;99.90;;;;;;5036369;28;91935;-75
2023/01/13 07:21:02;;;;;;;14.10;3.08;;;9.80;99.90;;;;;;5036444;27;89357;-74
2023/01/13 07:23:32;;;;;;;12.25;3.00;;;9.80;99.90;;;;;;5037701;28;88403;-75
2023/01/13 07:26:00;;;;;;;14.93;2.95;;;9.80;99.90;;;;;;5036486;28;90914;-75
2023/01/13 07:28:28;;;;;;;14.20;2.97;;;9.80;99.90;;;;;;5036513;27;88845;-75
2023/01/13 07:30:56;;;;;;;17.58;2.97;;;9.80;99.90;;;;;;5037628;28;87941;-75
2023/01/13 07:33:23;;;;;;;12.75;3.15;;;9.80;99.90;;;;;;5038032;28;87437;-75
2023/01/13 07:35:59;;;;;;;11.57;2.63;;;9.80;99.90;;;;;;5036180;28;90293;-75
2023/01/13 07:38:26;;;;;;;12.75;2.60;;;9.90;99.90;;;;;;5037312;27;88012;-75
2023/01/13 07:40:54;;;;;;;16.40;3.25;;;9.90;99.90;;;;;;5037504;28;88755;-75
2023/01/13 07:43:33;;;;;;;14.63;3.35;;;9.90;99.90;;;;;;5037750;27;88362;-75
2023/01/13 07:46:05;;;;;;;11.00;3.00;;;9.90;99.90;;;;;;5036313;28;91712;-75
2023/01/13 07:48:33;;;;;;;15.70;3.83;;;9.90;99.90;;;;;;5036278;28;88547;-75
2023/01/13 07:51:05;;;;;;;13.02;2.45;;;9.90;99.90;;;;;;5039801;28;88116;-75
2023/01/13 07:53:33;;;;;;;14.88;3.00;;;9.90;99.90;;;;;;5040795;27;88031;-75
2023/01/13 07:56:02;;;;;;;14.07;2.75;;;9.80;99.90;;;;;;5041040;28;88945;-75
2023/01/13 07:58:29;;;;;;;10.75;2.88;;;9.80;99.90;;;;;;5041117;27;87465;-75
2023/01/13 08:00:56;;;;;;;13.02;2.53;;;9.80;99.90;;;;;;5039601;28;89458;-75
2023/01/13 08:03:25;;;;;;;12.38;2.58;;;9.70;99.90;;;;;;5041070;28;88307;-75
2023/01/13 08:05:52;;;;;;;13.18;2.53;;;9.70;99.90;;;;;;5022626;28;92028;-75
2023/01/13 08:08:19;;;;;;;13.77;3.70;;;9.70;99.90;;;;;;5039735;27;88262;-75
2023/01/13 08:10:46;;;;;;;10.40;2.53;;;9.70;99.90;;;;;;5022562;28;87942;-75
2023/01/13 08:13:18;;;;;;;10.70;2.83;;;9.70;99.90;;;;;;5022613;28;94092;-75
2023/01/13 08:15:48;;;;;;;16.88;3.30;;;9.60;99.90;;;;;;5040734;27;87962;-75
2023/01/13 08:18:18;;;;;;;17.52;2.83;;;9.60;99.90;;;;;;5039484;28;88383;-75
2023/01/13 08:20:47;;;;;;;14.38;3.33;;;9.60;99.90;;;;;;5039515;27;87978;-75
2023/01/13 08:23:15;;;;;;;16.85;3.03;;;9.60;99.90;;;;;;5040883;27;88501;-75
2023/01/13 08:25:42;;;;;;;14.25;2.78;;;9.60;99.90;;;;;;5039260;28;88774;-75
2023/01/13 08:28:09;;;;;;;15.18;3.28;;;9.60;99.90;;;;;;5039248;27;88772;-74
2023/01/13 08:30:36;;;;;;;10.93;2.90;;;9.60;99.90;;;;;;5038579;28;89455;-74
2023/01/13 08:33:07;;;;;;;12.80;2.80;;;9.50;99.90;;;;;;5039318;28;88314;-74
2023/01/13 08:35:38;;;;;;;13.57;2.63;;;9.60;99.90;;;;;;5039085;28;90555;-74
2023/01/13 08:38:07;;;;;;;15.07;3.15;;;9.60;99.90;;;;;;5040575;27;88694;-74
2023/01/13 08:40:34;;;;;;;20.33;3.38;;;9.60;99.90;;;;;;5038923;28;89436;-73
2023/01/13 08:43:01;;;;;;;16.17;3.00;;;9.60;99.90;;;;;;5038998;28;90985;-74
2023/01/13 08:45:28;;;;;;;15.27;2.63;;;9.70;99.90;;;;;;5040504;28;88820;-74
2023/01/13 08:47:55;;;;;;;16.25;2.40;;;9.70;99.90;;;;;;5040448;28;88827;-74
2023/01/13 08:50:22;;;;;;;9.38;2.20;;;9.70;99.90;;;;;;5038848;27;89341;-74
2023/01/13 08:52:49;;;;;;;19.17;3.95;;;9.70;99.90;;;;;;5039870;27;90594;-74
2023/01/13 08:55:16;;;;;;;13.77;2.83;;;9.70;99.90;;;;;;5038468;28;89530;-74
2023/01/13 08:57:43;;;;;;;15.95;3.58;;;9.70;99.90;;;;;;5040001;28;89438;-74
2023/01/13 09:00:11;;;;;;;15.55;3.22;;;9.70;99.90;;;;;;5038339;28;89438;-74
2023/01/13 09:02:38;;;;;;;18.33;3.42;;;9.70;99.90;;;;;;5039844;27;88617;-74
2023/01/13 09:05:07;;;;;;;17.55;3.70;;;9.70;99.90;;;;;;5038213;27;91365;-74
2023/01/13 09:07:36;;;;;;;14.48;2.40;;;9.80;99.90;;;;;;5038565;28;89725;-74
2023/01/13 09:10:06;;;;;;;20.10;3.40;;;9.80;99.90;;;;;;5039747;27;88044;-74
2023/01/13 09:15:19;;;;;;;17.35;3.63;;;9.80;99.90;;;;;;5040118;27;87949;-74
2023/01/13 09:17:46;;;;;;;16.33;2.75;;;9.80;99.90;;;;;;5038247;27;88908;-74
2023/01/13 09:20:13;;;;;;;17.75;3.22;;;9.80;99.90;;;;;;5039658;28;89262;-74
2023/01/13 09:22:40;;;;;;;18.70;3.33;;;9.80;99.90;;;;;;5039678;28;90288;-74
2023/01/13 09:25:08;;;;;;;19.38;4.18;;;9.80;99.90;;;;;;5038653;28;87950;-74
2023/01/13 09:27:35;;;;;;;18.75;3.65;;;9.90;99.90;;;;;;5037623;28;88598;-74
2023/01/13 09:30:03;;;;;;;20.73;3.70;;;9.90;99.90;;;;;;5039360;27;88418;-74
2023/01/13 09:32:30;;;;;;;16.98;2.97;;;9.90;99.90;;;;;;5038505;28;88523;-74
2023/01/13 09:34:59;;;;;;;14.02;2.97;;;9.90;99.90;;;;;;5039278;28;88772;-74
2023/01/13 09:37:31;;;;;;;13.52;3.15;;;9.90;99.90;;;;;;5039831;28;87493;-74
2023/01/13 09:39:58;;;;;;;16.98;2.88;;;9.90;99.90;;;;;;5039434;27;87962;-74
2023/01/13 09:45:24;;;;;;;10.40;3.00;;;10.00;99.90;;;;;;5037618;27;92185;-74
2023/01/13 09:48:04;;;;;;;12.00;2.67;;;10.00;99.90;;;;;;5037288;28;92309;-74
2023/01/13 09:50:49;;;;;;;20.15;3.88;;;10.00;99.90;;;;;;5037992;27;88656;-74
2023/01/13 09:53:27;;;;;;;16.77;2.83;;;9.90;99.90;;;;;;5038085;27;89813;-74
2023/01/13 09:55:54;;;;;;;12.10;2.67;;;9.90;99.90;;;;;;5039278;28;88718;-74
2023/01/13 09:58:23;;;;;;;13.85;2.95;;;9.90;99.90;;;;;;5038016;28;88750;-74
2023/01/13 10:01:19;;;;;;;21.63;3.60;;;9.90;99.90;;;;;;5038829;27;91578;-74
2023/01/13 10:03:48;;;;;;;18.75;2.90;;;10.00;99.90;;;;;;5039316;27;88365;-74
2023/01/13 10:06:18;;;;;;;18.48;3.28;;;9.90;99.90;;;;;;5037783;28;88103;-74
2023/01/13 10:08:47;;;;;;;19.08;4.18;;;10.00;99.90;;;;;;5038678;28;88629;-74
2023/01/13 10:14:29;;;;;;;15.70;2.75;;;10.00;99.90;;;;;;5039087;27;88677;-74
2023/01/13 10:17:04;;;;;;;16.60;3.03;;;10.10;99.90;;;;;;5037378;28;91677;-74
2023/01/13 10:19:42;;;;;;;17.45;3.53;;;10.10;99.90;;;;;;5039058;27;88980;-74
2023/01/13 10:22:21;;;;;;;17.88;3.13;;;10.10;99.90;;;;;;5038896;28;87982;-75
2023/01/13 10:25:03;;;;;;;16.02;3.17;;;10.10;99.90;;;;;;5037208;28;91216;-75
2023/01/13 10:27:30;;;;;;;15.43;3.13;;;10.10;99.90;;;;;;5037227;28;89004;-75
2023/01/13 10:29:57;;;;;;;16.10;3.28;;;10.20;99.90;;;;;;5039101;28;87823;-75
2023/01/13 10:32:24;;;;;;;16.55;3.85;;;10.20;99.90;;;;;;5020591;28;89641;-74
2023/01/13 10:34:55;;;;;;;13.98;3.22;;;10.30;99.90;;;;;;5003692;28;90447;-75
2023/01/13 10:37:25;;;;;;;17.73;3.42;;;10.20;99.90;;;;;;5037105;27;89753;-75
2023/01/13 10:39:59;;;;;;;18.70;3.03;;;10.20;99.90;;;;;;5036955;28;91876;-75
2023/01/13 10:42:26;;;;;;;15.18;3.20;;;10.10;99.90;;;;;;5038866;28;88021;-75
2023/01/13 10:44:55;;;;;;;23.83;4.15;;;10.00;99.90;;;;;;5038275;28;88334;-75
2023/01/13 10:47:31;;;;;;;15.02;3.90;;;9.90;99.90;;;;;;5038293;28;88670;-74
2023/01/13 10:50:07;;;;;;;18.35;3.78;;;9.90;99.90;;;;;;5038520;27;88657;-74
2023/01/13 10:52:41;;;;;;;18.90;3.78;;;9.80;99.90;;;;;;5037262;27;88014;-74
2023/01/13 10:55:33;;;;;;;16.07;3.10;;;9.80;99.90;;;;;;5039017;28;88608;-74
2023/01/13 10:58:16;;;;;;;22.48;3.42;;;9.80;99.90;;;;;;5032995;27;88052;-74
2023/01/13 11:00:44;;;;;;;18.30;3.50;;;9.80;99.90;;;;;;5037293;28;88676;-74
2023/01/13 11:03:17;;;;;;;22.80;3.92;;;9.70;99.90;;;;;;5036644;27;89068;-74
2023/01/13 11:06:02;;;;;;;17.07;2.80;;;9.80;99.90;;;;;;5036882;28;90652;-74
2023/01/13 11:08:40;;;;;;;23.52;4.65;;;9.90;99.90;;;;;;5020019;28;91176;-74
2023/01/13 11:11:37;;;;;;;19.17;3.60;;;9.90;99.90;;;;;;5070264;27;91936;-74
2023/01/13 11:14:31;;;;;;;21.02;4.05;;;9.90;99.90;;;;;;5038203;28;88423;-75
2023/01/13 11:17:19;;;;;;;21.35;4.75;;;10.00;99.90;;;;;;5037959;28;88388;-74
2023/01/13 11:19:58;;;;;;;15.52;3.30;;;10.00;99.90;;;;;;5037138;28;88572;-74
2023/01/13 11:22:35;;;;;;;17.85;3.63;;;10.10;99.90;;;;;;5037255;28;88258;-74
2023/01/13 11:25:04;;;;;;;17.23;2.78;;;10.10;99.90;;;;;;5036657;28;88170;-74
2023/01/13 11:27:37;;;;;;;17.65;3.17;;;10.10;99.90;;;;;;5037139;28;88358;-74
2023/01/13 11:30:21;;;;;;;19.92;3.70;;;10.10;99.90;;;;;;5035894;28;92308;-74
2023/01/13 11:33:14;;;;;;;15.55;3.40;;;10.20;99.90;;;;;;5036296;28;90333;-74
2023/01/13 11:35:47;;;;;;;16.15;3.55;;;10.20;99.90;;;;;;5021985;27;88378;-74
2023/01/13 11:38:17;;;;;;;18.13;3.88;;;10.20;99.90;;;;;;5037698;27;89186;-74
2023/01/13 11:40:49;;;;;;;19.08;4.05;;;10.20;99.90;;;;;;5036242;28;91791;-74
2023/01/13 11:43:27;;;;;;;22.05;4.25;;;10.20;99.90;;;;;;5036323;28;88706;-74
2023/01/13 11:46:00;;;;;;;18.38;3.13;;;10.20;99.90;;;;;;5037943;28;88014;-74
2023/01/13 11:48:31;;;;;;;14.97;2.93;;;10.20;99.90;;;;;;5038283;28;88088;-74
2023/01/13 11:51:13;;;;;;;17.90;4.18;;;10.20;99.90;;;;;;5037404;28;88852;-74
2023/01/13 11:53:58;;;;;;;21.83;4.07;;;10.30;99.90;;;;;;5036380;28;88094;-74
2023/01/13 11:56:33;;;;;;;15.93;3.38;;;10.20;99.90;;;;;;5035913;28;89645;-74
2023/01/13 11:59:12;;;;;;;20.42;3.47;;;10.20;99.90;;;;;;5037443;28;88772;-74
2023/01/13 12:02:03;;;;;;;16.40;3.28;;;10.20;99.90;;;;;;5036530;28;88840;-74
2023/01/13 12:04:49;;;;;;;21.95;3.63;;;10.30;99.90;;;;;;5037360;27;88581;-74
2023/01/13 12:07:32;;;;;;;18.13;3.20;;;10.30;99.90;;;;;;5037596;27;88580;-74
2023/01/13 12:10:05;;;;;;;16.83;3.47;;;10.30;99.90;;;;;;5037259;28;88521;-74
2023/01/13 12:12:58;;;;;;;16.90;3.15;;;10.30;99.90;;;;;;5037273;28;88715;-74
2023/01/13 12:15:32;;;;;;;15.63;3.72;;;10.40;99.90;;;;;;5037947;28;88978;-74
2023/01/13 12:18:32;;;;;;;19.90;3.50;;;10.40;99.90;;;;;;5036212;28;87937;-74
2023/01/13 12:21:14;;;;;;;19.42;3.60;;;10.50;99.90;;;;;;5037166;28;88300;-74
2023/01/13 12:24:09;;;;;;;25.27;3.67;;;10.50;99.90;;;;;;5052614;27;92123;-74
2023/01/13 12:26:41;;;;;;;15.70;3.15;;;10.50;99.90;;;;;;5037172;27;89165;-74
2023/01/13 12:29:17;;;;;;;19.13;3.70;;;10.50;99.90;;;;;;5037066;28;88321;-74
2023/01/13 12:31:47;;;;;;;15.32;2.78;;;10.70;99.90;;;;;;5037183;28;87999;-74
2023/01/13 12:34:48;;;;;;;22.83;3.13;;;10.70;99.90;;;;;;5035475;27;91881;-74
2023/01/13 12:37:33;;;;;;;17.83;3.70;;;10.80;99.90;;;;;;5040493;28;88577;-74
2023/01/13 12:40:18;;;;;;;12.93;2.72;;;10.80;99.90;;;;;;5038975;28;89520;-74
2023/01/13 12:45:45;;;;;;;11.85;2.42;;;10.80;99.90;;;;;;5040505;27;88820;-74
2023/01/13 12:49:04;;;;;;;16.20;3.33;;;10.80;99.90;;;;;;5040083;27;87964;-75
2023/01/13 12:51:55;;;;;;;13.23;3.70;;;10.90;99.90;;;;;;5016766;28;88859;-74
2023/01/13 12:54:31;;;;;;;13.95;3.03;;;10.80;99.90;;;;;;5034230;27;88135;-74
2023/01/13 12:56:59;;;;;;;14.27;2.97;;;10.90;99.90;;;;;;5040100;27;88953;-74
2023/01/13 12:59:26;;;;;;;12.00;2.85;;;10.80;99.90;;;;;;5038815;27;88624;-74
2023/01/13 13:02:11;;;;;;;13.32;2.85;;;10.80;99.90;;;;;;5040342;28;88432;-74
2023/01/13 13:04:50;;;;;;;9.82;2.35;;;10.90;99.90;;;;;;5038799;28;91224;-74
2023/01/13 13:07:29;;;;;;;14.05;2.17;;;10.80;99.90;;;;;;5038512;28;91479;-74
2023/01/13 13:10:30;;;;;;;11.38;2.80;;;10.90;99.90;;;;;;5022238;28;91149;-74
2023/01/13 13:13:18;;;;;;;12.50;2.20;;;10.80;99.90;;;;;;5031019;28;89288;-74
2023/01/13 13:15:47;;;;;;;14.27;2.63;;;10.90;99.90;;;;;;5038625;28;91012;-74
2023/01/13 13:18:20;;;;;;;17.00;3.17;;;10.90;99.90;;;;;;5039125;28;89639;-73
2023/01/13 13:20:58;;;;;;;14.48;2.65;;;10.90;99.90;;;;;;5038672;28;89544;-73
2023/01/13 13:23:46;;;;;;;12.18;2.60;;;10.90;99.90;;;;;;5039691;28;88757;-73
2023/01/13 13:26:41;;;;;;;11.57;2.10;;;10.90;99.90;;;;;;5039723;28;88334;-73
2023/01/13 13:29:20;;;;;;;;;;;10.90;99.90;;;;;;5040188;27;88786;-74
2023/01/13 13:32:05;;;;;;;9.50;2.53;;;10.70;99.90;;;;;;5039611;28;88360;-74
2023/01/13 13:35:00;;;;;;;10.95;2.45;;;10.70;99.90;;;;;;5039797;28;87915;-74
2023/01/13 13:46:47;;;;;;;12.43;3.17;;;10.80;99.90;;;;;;5039028;27;88727;-75
2023/01/13 13:49:19;;;;;;;9.73;2.17;;;10.80;99.90;;;;;;5039291;28;88492;-75
2023/01/13 13:52:29;;;;;;;10.02;2.65;;;10.80;99.90;;;;;;5037777;28;91524;-74
2023/01/13 13:55:04;;;;;;;14.15;2.47;;;10.90;99.90;;;;;;5071764;27;91220;-74
2023/01/13 13:57:36;;;;;;;11.50;2.65;;;10.80;99.90;;;;;;5037845;27;89185;-75
2023/01/13 14:00:15;;;;;;;14.13;2.88;;;10.80;99.90;;;;;;5038271;28;88230;-75